Time;durP1;ratioP1;P1;durP2;ratioP2;P2;SDS_P1;SDS_P2;PMS_P1;PMS_P2;Temp;Humidity;BMP_temperature;BMP_pressure;BME280_temperature;BME280_humidity;BME280_pressure;Samples;Min_cycle;Max_cycle;Signal;HPM_P1;HPM_P2
2023/12/24 00:02:41;;;;;;;0.93;0.67;;;;;;;7.64;100.00;99727.38;6005948;28;20077;-74
2023/12/24 00:05:36;;;;;;;0.80;0.60;;;;;;;7.65;100.00;99726.41;6004070;28;20034;-73
2023/12/24 00:08:32;;;;;;;1.50;0.73;;;;;;;7.64;100.00;99733.50;6005570;28;20332;-73
2023/12/24 00:11:27;;;;;;;1.52;0.80;;;;;;;7.63;100.00;99725.75;6005536;28;20050;-74
2023/12/24 00:14:23;;;;;;;1.03;0.77;;;;;;;7.66;100.00;99720.19;5998048;28;20038;-72
2023/12/24 00:17:18;;;;;;;0.87;0.33;;;;;;;7.66;100.00;99728.91;6001527;28;20131;-72
2023/12/24 00:20:13;;;;;;;0.97;0.50;;;;;;;7.68;100.00;99734.03;6006520;28;20097;-73
2023/12/24 00:23:10;;;;;;;1.03;0.57;;;;;;;7.59;100.00;99713.81;6002698;28;20430;-73
2023/12/24 00:26:05;;;;;;;1.23;0.63;;;;;;;7.64;100.00;99722.13;6002211;28;20037;-73
2023/12/24 00:29:01;;;;;;;1.80;0.70;;;;;;;7.73;100.00;99740.50;6009473;28;20039;-73
2023/12/24 00:31:56;;;;;;;0.80;0.57;;;;;;;7.74;100.00;99738.72;5999748;28;20046;-72
2023/12/24 00:34:52;;;;;;;0.43;0.40;;;;;;;7.66;100.00;99733.38;5996420;28;20097;-73
2023/12/24 00:37:48;;;;;;;1.47;0.67;;;;;;;7.70;100.00;99738.19;6004925;28;20061;-73
2023/12/24 00:40:43;;;;;;;0.50;0.47;;;;;;;7.69;100.00;99735.72;6001907;28;20122;-73
2023/12/24 00:43:38;;;;;;;0.83;0.50;;;;;;;7.73;100.00;99731.78;6000772;28;20042;-73
2023/12/24 00:46:34;;;;;;;1.50;0.70;;;;;;;7.77;100.00;99738.41;5997506;28;20742;-73
2023/12/24 00:49:29;;;;;;;1.40;0.80;;;;;;;7.75;100.00;99735.91;6011630;28;20377;-73
2023/12/24 00:52:25;;;;;;;1.42;0.73;;;;;;;7.68;100.00;99720.84;6003045;28;20105;-72
2023/12/24 00:55:21;;;;;;;2.08;0.57;;;;;;;7.66;100.00;99720.97;5998101;28;20664;-72
2023/12/24 00:58:17;;;;;;;1.85;0.70;;;;;;;7.69;100.00;99714.59;6002423;28;20050;-72
2023/12/24 01:01:13;;;;;;;2.40;0.60;;;;;;;7.73;100.00;99721.22;6003864;28;20042;-74
2023/12/24 01:04:08;;;;;;;1.23;0.70;;;;;;;7.73;100.00;99723.84;6000710;28;20042;-72
2023/12/24 01:07:03;;;;;;;1.07;0.60;;;;;;;7.69;100.00;99714.59;6001011;28;20490;-73
2023/12/24 01:09:59;;;;;;;2.03;1.20;;;;;;;7.63;100.00;99715.19;6009407;28;20450;-73
2023/12/24 01:12:54;;;;;;;2.10;0.63;;;;;;;7.64;100.00;99719.47;6006761;28;20031;-73
2023/12/24 01:15:49;;;;;;;1.20;0.80;;;;;;;7.67;100.00;99727.09;6002536;28;20345;-73
2023/12/24 01:18:46;;;;;;;5.27;0.93;;;;;;;7.71;100.00;99731.09;6005979;28;20282;-73
2023/12/24 01:21:41;;;;;;;1.33;0.75;;;;;;;7.64;100.00;99730.03;6007540;28;20619;-73
2023/12/24 01:24:36;;;;;;;1.43;0.63;;;;;;;7.68;100.00;99732.22;6004186;28;20041;-73
2023/12/24 01:27:32;;;;;;;1.33;0.70;;;;;;;7.69;100.00;99731.22;6004370;28;20089;-72
2023/12/24 01:30:27;;;;;;;2.23;1.10;;;;;;;7.54;100.00;99711.66;6009546;28;20419;-73
2023/12/24 01:33:22;;;;;;;2.50;0.80;;;;;;;7.61;100.00;99719.81;6014749;28;20393;-73
2023/12/24 01:36:17;;;;;;;1.47;0.80;;;;;;;7.66;100.00;99728.09;6001602;28;20039;-73
2023/12/24 01:39:13;;;;;;;2.10;0.80;;;;;;;7.57;100.00;99721.06;6008225;28;20022;-74
2023/12/24 01:42:09;;;;;;;1.95;1.20;;;;;;;7.70;100.00;99737.34;6008838;28;20030;-73
2023/12/24 01:45:04;;;;;;;2.73;1.20;;;;;;;7.67;100.00;99727.09;6008914;28;20052;-72
2023/12/24 01:48:00;;;;;;;3.05;1.02;;;;;;;7.61;100.00;99719.81;6009299;28;20498;-73
2023/12/24 01:50:57;;;;;;;3.30;1.50;;;;;;;7.58;100.00;99730.66;6000093;28;20117;-73
2023/12/24 01:53:52;;;;;;;5.30;1.33;;;;;;;7.64;100.00;99736.13;6009338;28;20556;-73
2023/12/24 01:56:50;;;;;;;2.40;1.15;;;;;;;7.63;100.00;99738.94;6007633;28;20038;-73
2023/12/24 01:59:45;;;;;;;2.50;1.40;;;;;;;7.56;100.00;99735.22;6008500;28;20026;-74
2023/12/24 02:02:41;;;;;;;2.90;1.30;;;;;;;7.57;100.00;99735.09;6014919;28;20057;-73
2023/12/24 02:05:37;;;;;;;2.15;1.13;;;;;;;7.56;100.00;99724.69;6005460;28;20033;-73
2023/12/24 02:08:32;;;;;;;2.90;1.33;;;;;;;7.49;100.00;99716.56;6007407;28;20085;-73
2023/12/24 02:11:28;;;;;;;5.77;1.60;;;;;;;7.59;100.00;99732.28;6014027;28;20741;-73
2023/12/24 02:14:23;;;;;;;3.30;1.60;;;;;;;7.56;100.00;99719.41;6007225;28;20030;-73
2023/12/24 02:17:18;;;;;;;2.63;1.60;;;;;;;7.54;100.00;99713.47;6006129;28;20754;-73
2023/12/24 02:20:18;;;;;;;2.58;1.40;;;;;;;7.52;100.00;99708.34;6006893;28;20292;-73
2023/12/24 02:23:13;;;;;;;4.85;1.38;;;;;;;7.57;100.00;99708.72;6012197;28;20034;-73
2023/12/24 02:26:28;;;;;;;3.53;1.30;;;;;;;7.54;100.00;99710.81;6007045;28;20548;-73
2023/12/24 02:29:27;;;;;;;2.15;1.08;;;;;;;7.56;100.00;99714.13;6009134;28;20433;-73
2023/12/24 02:32:24;;;;;;;2.92;1.50;;;;;;;7.59;100.00;99708.56;6010257;28;20038;-73
2023/12/24 02:35:20;;;;;;;2.47;1.48;;;;;;;7.52;100.00;99696.97;6005437;28;20058;-73
2023/12/24 02:38:15;;;;;;;2.20;1.42;;;;;;;7.52;100.00;99703.06;6002245;28;20063;-73
2023/12/24 02:41:11;;;;;;;2.53;1.30;;;;;;;7.52;100.00;99699.59;6005395;28;20030;-73
2023/12/24 02:44:06;;;;;;;2.90;1.40;;;;;;;7.52;100.00;99692.53;6007367;28;20809;-73
2023/12/24 02:47:04;;;;;;;4.33;1.20;;;;;;;7.54;100.00;99692.34;6002476;28;20034;-73
2023/12/24 02:49:59;;;;;;;3.03;1.65;;;;;;;7.49;100.00;99689.34;6008847;28;20034;-73
2023/12/24 02:52:54;;;;;;;2.70;1.57;;;;;;;7.50;100.00;99694.47;6014045;28;20483;-74
2023/12/24 02:55:50;;;;;;;6.40;1.70;;;;;;;7.47;100.00;99693.97;6003854;28;20074;-73
2023/12/24 02:58:45;;;;;;;3.37;1.53;;;;;;;7.48;100.00;99701.69;6008049;28;20045;-74
2023/12/24 03:01:40;;;;;;;3.00;1.40;;;;;;;7.43;100.00;99677.59;6014143;28;20812;-73
2023/12/24 03:04:36;;;;;;;2.88;1.58;;;;;;;7.49;100.00;99686.72;6006094;28;20115;-73
2023/12/24 03:07:31;;;;;;;3.33;1.73;;;;;;;7.46;100.00;99690.47;6007142;28;20027;-72
2023/12/24 03:10:26;;;;;;;4.40;2.03;;;;;;;7.42;100.00;99669.84;6012990;28;20034;-73
2023/12/24 03:13:22;;;;;;;2.87;1.47;;;;;;;7.48;100.00;99679.75;6008923;28;20390;-73
2023/12/24 03:16:17;;;;;;;3.63;1.90;;;;;;;7.41;100.00;99674.28;6002947;28;20433;-73
2023/12/24 03:19:13;;;;;;;4.07;1.70;;;;;;;7.46;100.00;99676.47;6006455;28;20022;-74
2023/12/24 03:22:08;;;;;;;4.87;2.00;;;;;;;7.39;100.00;99667.50;6007668;28;20027;-74
2023/12/24 03:25:04;;;;;;;3.07;1.60;;;;;;;7.43;100.00;99667.03;6006144;28;20045;-73
2023/12/24 03:27:59;;;;;;;3.95;1.92;;;;;;;7.38;100.00;99647.38;6006847;28;20034;-73
2023/12/24 03:30:54;;;;;;;4.87;2.00;;;;;;;7.41;100.00;99658.47;6013137;28;20038;-74
2023/12/24 03:33:50;;;;;;;3.60;1.87;;;;;;;7.43;100.00;99663.56;6007275;28;20022;-74
2023/12/24 03:36:45;;;;;;;6.10;1.97;;;;;;;7.44;100.00;99662.59;6003930;28;20035;-73
2023/12/24 03:39:41;;;;;;;3.22;1.77;;;;;;;7.43;100.00;99667.03;6003905;28;20141;-73
2023/12/24 03:42:37;;;;;;;4.68;2.30;;;;;;;7.43;100.00;99660.94;6005898;28;20027;-72
2023/12/24 03:45:32;;;;;;;4.63;2.03;;;;;;;7.52;100.00;99678.50;6000374;28;20053;-73
2023/12/24 03:48:31;;;;;;;3.53;2.00;;;;;;;7.47;100.00;99667.56;6007176;28;20062;-73
2023/12/24 03:51:27;;;;;;;5.18;1.98;;;;;;;7.50;100.00;99677.81;6009623;28;20061;-73
2023/12/24 03:54:22;;;;;;;5.80;2.27;;;;;;;7.48;100.00;99667.41;6003405;28;20034;-73
2023/12/24 03:57:17;;;;;;;4.75;2.28;;;;;;;7.47;100.00;99655.22;6004833;28;20344;-72
2023/12/24 04:00:14;;;;;;;5.37;2.40;;;;;;;7.47;100.00;99651.75;6004970;28;20065;-74
2023/12/24 04:03:09;;;;;;;5.88;2.67;;;;;;;7.52;100.00;99675.84;6010476;28;20077;-73
2023/12/24 04:06:16;;;;;;;4.03;2.10;;;;;;;7.54;100.00;99681.81;6005230;28;20475;-73
2023/12/24 04:09:11;;;;;;;7.13;2.90;;;;;;;7.54;100.00;99687.06;6004759;28;20649;-73
2023/12/24 04:12:07;;;;;;;6.22;2.92;;;;;;;7.55;100.00;99676.41;6012579;28;20034;-73
2023/12/24 04:15:05;;;;;;;6.53;3.00;;;;;;;7.52;100.00;99673.22;5999291;28;20042;-73
2023/12/24 04:18:01;;;;;;;5.63;2.88;;;;;;;7.58;100.00;99685.81;6004973;28;20065;-73
2023/12/24 04:20:56;;;;;;;7.55;3.47;;;;;;;7.56;100.00;99678.03;6005002;28;20125;-73
2023/12/24 04:23:51;;;;;;;6.20;2.87;;;;;;;7.52;100.00;99675.84;6004686;28;20045;-72
2023/12/24 04:26:47;;;;;;;9.00;4.17;;;;;;;7.53;100.00;99667.78;6004565;28;20023;-73
2023/12/24 04:29:42;;;;;;;6.23;3.13;;;;;;;7.55;100.00;99670.28;6007602;28;20034;-73
2023/12/24 04:32:37;;;;;;;8.33;4.00;;;;;;;7.58;100.00;99669.97;6003996;28;20478;-73
2023/12/24 04:35:33;;;;;;;8.93;4.07;;;;;;;7.56;100.00;99664.00;6003412;28;20510;-72
2023/12/24 04:38:28;;;;;;;9.23;4.60;;;;;;;7.56;100.00;99653.44;6003710;28;20030;-73
2023/12/24 04:41:29;;;;;;;12.90;5.13;;;;;;;7.53;100.00;99656.41;6003956;28;20050;-72
2023/12/24 04:44:24;;;;;;;11.10;5.32;;;;;;;7.56;100.00;99654.28;6001219;28;20686;-73
2023/12/24 04:47:20;;;;;;;13.67;5.67;;;;;;;7.47;100.00;99636.75;6002736;28;20039;-72
2023/12/24 04:50:15;;;;;;;17.10;5.87;;;;;;;7.52;100.00;99645.03;6005562;28;20035;-73
2023/12/24 04:53:10;;;;;;;13.23;6.17;;;;;;;7.55;100.00;99639.47;6009187;28;20034;-73
2023/12/24 04:56:06;;;;;;;14.60;7.00;;;;;;;7.56;100.00;99637.63;6004189;28;20022;-72
2023/12/24 04:59:01;;;;;;;13.93;6.32;;;;;;;7.61;100.00;99652.00;6002371;28;20073;-73
2023/12/24 05:01:58;;;;;;;15.43;6.18;;;;;;;7.57;100.00;99637.50;6004561;28;20432;-73
2023/12/24 05:04:54;;;;;;;13.60;5.75;;;;;;;7.59;100.00;99629.41;6004090;28;20043;-73
2023/12/24 05:07:49;;;;;;;13.65;4.93;;;;;;;7.62;100.00;99637.03;6003276;28;20035;-73
2023/12/24 05:10:45;;;;;;;13.43;5.40;;;;;;;7.59;100.00;99624.13;6009926;28;20050;-74
2023/12/24 05:13:40;;;;;;;12.33;4.90;;;;;;;7.58;100.00;99623.31;6003762;28;20030;-73
2023/12/24 05:16:35;;;;;;;15.77;5.45;;;;;;;7.62;100.00;99608.84;6003212;28;20042;-73
2023/12/24 05:19:31;;;;;;;11.90;5.53;;;;;;;7.65;100.00;99624.34;6004395;28;20023;-73
2023/12/24 05:22:26;;;;;;;13.23;4.93;;;;;;;7.61;100.00;99616.91;6004362;28;20038;-73
2023/12/24 05:25:22;;;;;;;10.17;4.73;;;;;;;7.63;100.00;99618.41;6003530;28;20034;-72
2023/12/24 05:28:17;;;;;;;10.15;4.55;;;;;;;7.61;100.00;99622.19;6003736;28;20282;-73
2023/12/24 05:31:13;;;;;;;8.80;4.38;;;;;;;7.58;100.00;99614.59;6010605;28;20068;-72
2023/12/24 05:34:08;;;;;;;8.83;4.30;;;;;;;7.63;100.00;99625.50;6003301;28;20037;-73
2023/12/24 05:37:03;;;;;;;9.60;4.70;;;;;;;7.57;100.00;99615.56;6000263;28;20043;-73
2023/12/24 05:39:59;;;;;;;8.85;4.28;;;;;;;7.63;100.00;99628.13;6005989;28;20034;-73
2023/12/24 05:42:54;;;;;;;9.02;3.97;;;;;;;7.63;100.00;99607.03;6001620;28;20043;-73
2023/12/24 05:45:49;;;;;;;8.33;4.50;;;;;;;7.63;100.00;99597.31;6006478;28;20494;-73
2023/12/24 05:48:45;;;;;;;9.80;4.23;;;;;;;7.63;100.00;99592.03;6003846;28;20317;-73
2023/12/24 05:51:40;;;;;;;8.73;4.32;;;;;;;7.63;100.00;99604.41;6007316;28;20596;-73
2023/12/24 05:54:35;;;;;;;7.20;3.90;;;;;;;7.65;100.00;99597.13;6004051;28;20114;-72
2023/12/24 05:57:31;;;;;;;10.83;4.30;;;;;;;7.60;100.00;99599.41;6001066;28;20041;-73
2023/12/24 06:00:26;;;;;;;9.53;4.87;;;;;;;7.64;100.00;99595.47;6009076;28;20034;-73
2023/12/24 06:03:21;;;;;;;8.60;4.40;;;;;;;7.58;100.00;99586.38;6002207;28;20038;-73
2023/12/24 06:06:17;;;;;;;9.80;4.03;;;;;;;7.63;100.00;99596.47;6002357;28;20474;-73
2023/12/24 06:09:16;;;;;;;10.97;4.57;;;;;;;7.65;100.00;99603.25;6002137;28;20501;-73
2023/12/24 06:12:11;;;;;;;9.25;4.80;;;;;;;7.61;100.00;99587.91;6005538;28;20069;-73
2023/12/24 06:15:08;;;;;;;10.67;4.33;;;;;;;7.60;100.00;99581.78;6006155;28;20589;-74
2023/12/24 06:18:05;;;;;;;7.93;3.47;;;;;;;7.75;100.00;99603.13;6003748;28;20035;-73
2023/12/24 06:21:21;;;;;;;;;;;;;;;;;;;;;
2023/12/24 06:24:24;;;;;;;8.02;3.38;;;;;;;7.59;100.00;99572.22;6008468;28;20449;-73
2023/12/24 06:27:23;;;;;;;6.43;3.35;;;;;;;7.75;100.00;99597.84;6010319;28;20046;-73
2023/12/24 06:30:19;;;;;;;5.70;3.03;;;;;;;7.73;100.00;99597.19;6010723;28;20027;-73
2023/12/24 06:33:15;;;;;;;6.20;2.70;;;;;;;7.75;100.00;99587.31;6018110;28;20038;-73
2023/12/24 06:36:14;;;;;;;7.80;2.70;;;;;;;7.78;100.00;99602.84;6010610;28;20062;-74
2023/12/24 06:39:12;;;;;;;5.28;2.45;;;;;;;7.83;100.00;99584.72;6005859;28;20050;-73
2023/12/24 06:42:08;;;;;;;4.22;2.00;;;;;;;7.81;100.00;99597.25;6024105;28;20030;-73
2023/12/24 06:45:04;;;;;;;4.28;2.30;;;;;;;7.85;100.00;99597.78;6005271;28;20045;-73
2023/12/24 06:48:02;;;;;;;4.20;1.80;;;;;;;7.85;100.00;99597.78;6008081;28;20026;-73
2023/12/24 06:50:57;;;;;;;4.03;2.10;;;;;;;7.83;100.00;99600.53;6010002;28;20026;-73
2023/12/24 06:53:53;;;;;;;4.73;2.30;;;;;;;7.87;100.00;99588.72;6014165;28;20045;-75
2023/12/24 06:56:48;;;;;;;3.30;1.60;;;;;;;7.84;100.00;99577.63;6005814;28;20035;-73
2023/12/24 06:59:43;;;;;;;3.90;1.80;;;;;;;7.87;100.00;99586.06;6009577;28;20035;-73
2023/12/24 07:02:39;;;;;;;3.57;1.60;;;;;;;7.90;100.00;99601.59;6011610;28;20777;-73
2023/12/24 07:05:35;;;;;;;2.97;1.57;;;;;;;7.84;100.00;99583.75;6006997;28;20122;-72
2023/12/24 07:08:31;;;;;;;2.95;1.42;;;;;;;7.83;100.00;99592.63;6007400;28;20035;-73
2023/12/24 07:11:27;;;;;;;4.82;1.67;;;;;;;7.85;100.00;99569.56;6005880;28;20054;-72
2023/12/24 07:14:22;;;;;;;2.83;1.40;;;;;;;7.86;100.00;99578.28;6013124;28;20445;-72
2023/12/24 07:17:17;;;;;;;3.83;1.20;;;;;;;7.94;100.00;99579.16;6006893;28;20034;-73
2023/12/24 07:20:13;;;;;;;1.67;1.05;;;;;;;7.94;100.00;99571.25;6006247;28;20040;-73
2023/12/24 07:23:09;;;;;;;2.42;1.30;;;;;;;7.94;100.00;99571.25;6010973;28;20031;-73
2023/12/24 07:26:06;;;;;;;2.47;1.20;;;;;;;7.94;100.00;99565.97;6004181;28;20034;-73
2023/12/24 07:29:02;;;;;;;2.33;1.02;;;;;;;7.93;100.00;99564.34;6006932;28;20286;-72
2023/12/24 07:31:57;;;;;;;3.17;1.00;;;;;;;8.00;100.00;99569.78;6008149;28;20050;-73
2023/12/24 07:34:53;;;;;;;1.58;0.80;;;;;;;8.03;100.00;99565.03;6008642;28;20061;-72
2023/12/24 07:37:48;;;;;;;1.90;1.00;;;;;;;8.05;100.00;99563.06;6006624;28;20046;-73
2023/12/24 07:40:43;;;;;;;1.67;0.80;;;;;;;8.08;100.00;99557.47;6005065;28;20311;-74
2023/12/24 07:43:39;;;;;;;2.23;1.10;;;;;;;8.02;100.00;99542.25;6013872;28;20110;-73
2023/12/24 07:46:34;;;;;;;1.67;0.97;;;;;;;8.10;100.00;99555.47;6004573;28;20039;-72
2023/12/24 07:49:29;;;;;;;1.67;0.70;;;;;;;8.15;100.00;99563.75;6001550;28;20066;-73
2023/12/24 07:52:25;;;;;;;1.50;0.70;;;;;;;8.14;100.00;99559.47;6006262;28;20028;-74
2023/12/24 07:55:20;;;;;;;1.60;0.87;;;;;;;8.14;100.00;99548.91;6004660;28;20449;-73
2023/12/24 07:58:15;;;;;;;1.67;0.70;;;;;;;8.13;100.00;99535.84;6013658;28;20285;-73
2023/12/24 08:01:11;;;;;;;1.63;0.80;;;;;;;8.22;100.00;99543.66;6015406;28;20325;-73
2023/12/24 08:04:06;;;;;;;1.13;0.53;;;;;;;8.27;100.00;99536.13;6009147;28;20089;-73
2023/12/24 08:07:01;;;;;;;2.00;0.90;;;;;;;8.28;100.00;99531.66;6008492;28;20039;-73
2023/12/24 08:09:57;;;;;;;1.20;0.47;;;;;;;8.36;100.00;99543.09;6007264;28;20301;-74
2023/12/24 08:12:52;;;;;;;0.93;0.60;;;;;;;8.36;100.00;99524.59;6003633;28;20034;-73
2023/12/24 08:15:48;;;;;;;0.50;0.50;;;;;;;8.45;100.00;99537.81;6016925;28;20685;-73
2023/12/24 08:18:46;;;;;;;0.90;0.43;;;;;;;8.46;100.00;99534.19;6003280;28;20285;-73
2023/12/24 08:21:41;;;;;;;1.17;0.50;;;;;;;8.49;100.00;99523.28;6009493;28;20482;-74
2023/12/24 08:24:50;;;;;;;1.00;0.43;;;;;;;8.49;100.00;99523.28;6008431;28;20084;-75
2023/12/24 08:27:46;;;;;;;0.80;0.50;;;;;;;8.52;100.00;99510.59;5992288;28;20035;-73
2023/12/24 08:30:42;;;;;;;0.40;0.37;;;;;;;8.66;100.00;99532.91;6012697;28;20088;-74
2023/12/24 08:33:37;;;;;;;0.40;0.40;;;;;;;8.70;100.00;99527.13;6012559;28;20375;-72
2023/12/24 08:36:33;;;;;;;0.50;0.30;;;;;;;8.67;100.00;99532.72;6010080;28;20038;-73
2023/12/24 08:39:28;;;;;;;0.83;0.40;;;;;;;8.76;100.00;99529.13;6002474;28;20047;-73
2023/12/24 08:42:23;;;;;;;1.03;0.70;;;;;;;8.75;100.00;99530.09;6016687;28;20762;-74
2023/12/24 08:45:19;;;;;;;1.45;0.85;;;;;;;8.83;100.00;99545.16;6028933;28;20474;-74
2023/12/24 08:48:14;;;;;;;1.45;0.50;;;;;;;8.83;100.00;99538.03;6005036;28;20042;-73
2023/12/24 08:51:09;;;;;;;0.83;0.53;;;;;;;8.80;100.00;99529.63;6013963;28;20038;-73
2023/12/24 08:54:05;;;;;;;0.50;0.50;;;;;;;8.83;100.00;99519.53;6004072;28;20031;-74
2023/12/24 08:57:00;;;;;;;0.43;0.40;;;;;;;8.91;100.00;99534.59;6004702;28;20114;-73
2023/12/24 08:59:55;;;;;;;0.47;0.47;;;;;;;8.90;100.00;99535.56;6006725;28;20394;-72
2023/12/24 09:02:51;;;;;;;0.97;0.50;;;;;;;8.93;100.00;99533.44;6001358;28;20071;-73
2023/12/24 09:05:49;;;;;;;1.07;0.47;;;;;;;8.84;100.00;99507.16;6006806;28;20039;-74
2023/12/24 09:08:44;;;;;;;3.60;0.70;;;;;;;8.86;100.00;99511.28;6039870;28;20303;-73
2023/12/24 09:11:39;;;;;;;0.90;0.50;;;;;;;8.89;100.00;99512.75;6054376;28;20030;-74
2023/12/24 09:14:35;;;;;;;0.40;0.40;;;;;;;8.89;100.00;99515.41;6049207;28;20034;-72
2023/12/24 09:17:30;;;;;;;1.02;0.60;;;;;;;8.86;100.00;99511.28;6056463;28;20439;-73
2023/12/24 09:20:26;;;;;;;1.60;0.57;;;;;;;8.90;100.00;99522.34;6052082;28;20041;-73
2023/12/24 09:23:21;;;;;;;0.93;0.68;;;;;;;8.88;100.00;99529.63;6051780;28;20288;-73
2023/12/24 09:26:16;;;;;;;0.97;0.63;;;;;;;8.92;100.00;99536.22;6049550;28;20083;-75
2023/12/24 09:29:12;;;;;;;1.57;0.80;;;;;;;8.94;100.00;99529.78;6056512;28;20030;-73
2023/12/24 09:32:07;;;;;;;1.58;0.88;;;;;;;8.95;100.00;99520.03;6033270;28;20029;-75
2023/12/24 09:35:12;;;;;;;1.43;0.90;;;;;;;8.94;100.00;99531.63;6043057;28;20033;-75
2023/12/24 09:38:37;;;;;;;2.10;1.10;;;;;;;8.99;100.00;99530.13;6032888;28;20291;-75
2023/12/24 09:41:33;;;;;;;1.55;0.85;;;;;;;8.96;100.00;99527.81;6052875;28;20026;-74
2023/12/24 09:44:52;;;;;;;1.80;0.85;;;;;;;8.96;100.00;99529.63;6031703;28;20034;-75
2023/12/24 09:47:50;;;;;;;2.22;1.60;;;;;;;8.95;100.00;99525.34;6011171;28;20034;-75
2023/12/24 09:50:47;;;;;;;2.00;1.02;;;;;;;8.98;100.00;99509.97;6043968;28;20452;-74
2023/12/24 09:53:46;;;;;;;1.20;0.80;;;;;;;9.07;100.00;99525.84;6017697;28;20377;-75
2023/12/24 09:56:51;;;;;;;1.92;1.10;;;;;;;9.00;100.00;99517.72;6057668;28;20044;-74
2023/12/24 09:59:47;;;;;;;1.83;1.05;;;;;;;9.10;100.00;99523.69;6054777;28;20124;-73
2023/12/24 10:02:44;;;;;;;1.25;0.90;;;;;;;8.98;100.00;99514.44;6047185;28;20528;-73
2023/12/24 10:06:00;;;;;;;3.63;1.08;;;;;;;9.06;100.00;99530.28;6061212;28;20025;-73
2023/12/24 10:08:56;;;;;;;1.83;0.90;;;;;;;9.06;100.00;99525.00;6056518;28;20041;-73
2023/12/24 10:12:08;;;;;;;2.03;1.00;;;;;;;9.06;100.00;99532.94;6052972;28;20029;-73
2023/12/24 10:15:07;;;;;;;2.97;1.63;;;;;;;9.11;100.00;99525.31;6052833;28;20770;-72
2023/12/24 10:18:17;;;;;;;2.22;1.17;;;;;;;9.10;100.00;99510.47;6039354;28;20096;-73
2023/12/24 10:21:13;;;;;;;1.75;1.10;;;;;;;9.11;100.00;99511.28;6051377;28;20453;-74
2023/12/24 10:24:11;;;;;;;2.07;1.17;;;;;;;9.16;100.00;99511.63;6052280;28;20037;-74
2023/12/24 10:27:08;;;;;;;3.05;1.30;;;;;;;9.13;100.00;99496.88;6060445;28;20029;-74
2023/12/24 10:30:09;;;;;;;1.98;1.20;;;;;;;9.22;100.00;99506.47;6055351;28;20037;-73
2023/12/24 10:33:12;;;;;;;4.32;1.38;;;;;;;9.18;100.00;99485.84;6052709;28;20120;-74
2023/12/24 10:36:08;;;;;;;1.80;0.90;;;;;;;9.21;100.00;99501.38;6056155;28;20104;-74
2023/12/24 10:39:07;;;;;;;3.17;1.25;;;;;;;9.19;100.00;99490.94;6020854;28;20412;-75
2023/12/24 10:42:03;;;;;;;2.75;1.15;;;;;;;9.16;100.00;99488.63;6034733;28;20474;-73
2023/12/24 10:44:59;;;;;;;3.47;1.20;;;;;;;9.25;100.00;99500.84;6052337;28;20030;-74
2023/12/24 10:47:54;;;;;;;5.10;1.30;;;;;;;9.24;100.00;99488.63;6055325;28;20053;-73
2023/12/24 10:50:50;;;;;;;3.77;1.20;;;;;;;9.29;100.00;99496.91;6056743;28;20273;-73
2023/12/24 10:53:54;;;;;;;1.52;1.00;;;;;;;9.33;100.00;99492.06;6035013;28;20029;-75
2023/12/24 10:57:01;;;;;;;3.58;1.50;;;;;;;9.40;100.00;99483.28;6059270;28;20030;-75
2023/12/24 11:00:12;;;;;;;2.33;1.10;;;;;;;9.49;100.00;99473.53;6050368;28;20041;-74
2023/12/24 11:03:07;;;;;;;2.83;1.30;;;;;;;9.50;100.00;99470.72;6042479;28;20473;-73
2023/12/24 11:06:03;;;;;;;2.43;1.30;;;;;;;9.54;100.00;99466.72;6068407;28;20096;-74
2023/12/24 11:08:58;;;;;;;1.23;0.82;;;;;;;9.59;100.00;99472.31;6067030;28;20040;-74
2023/12/24 11:11:54;;;;;;;2.85;1.30;;;;;;;9.66;100.00;99471.66;6066532;28;20084;-74
2023/12/24 11:14:50;;;;;;;3.45;1.70;;;;;;;9.72;100.00;99484.22;6066467;28;20465;-74
2023/12/24 11:17:52;;;;;;;2.15;1.20;;;;;;;9.71;100.00;99448.97;6065051;28;20053;-73
2023/12/24 11:20:47;;;;;;;2.22;1.30;;;;;;;9.73;100.00;99440.88;6059029;28;20037;-73
2023/12/24 11:24:08;;;;;;;2.23;1.40;;;;;;;9.74;100.00;99431.91;6067082;28;20040;-74
2023/12/24 11:27:10;;;;;;;2.05;1.05;;;;;;;9.84;100.00;99449.25;6074373;28;20040;-73
2023/12/24 11:30:07;;;;;;;2.55;1.40;;;;;;;9.86;100.00;99446.44;6035426;28;20049;-74
2023/12/24 11:33:03;;;;;;;2.40;1.48;;;;;;;9.87;100.00;99438.31;6070241;28;20070;-73
2023/12/24 11:36:00;;;;;;;2.47;1.33;;;;;;;9.83;100.00;99423.78;6073915;28;20033;-73
2023/12/24 11:38:56;;;;;;;1.38;1.00;;;;;;;9.93;100.00;99437.63;6064927;28;20088;-73
2023/12/24 11:42:06;;;;;;;2.08;1.27;;;;;;;9.99;100.00;99438.75;6059582;28;20042;-74
2023/12/24 11:45:02;;;;;;;3.45;1.20;;;;;;;9.96;100.00;99429.34;6055641;28;20040;-73
2023/12/24 11:47:57;;;;;;;1.85;1.00;;;;;;;10.00;100.00;99432.47;6066779;28;20469;-74
2023/12/24 11:51:03;;;;;;;2.10;1.27;;;;;;;10.04;100.00;99429.28;6072312;28;20520;-73
2023/12/24 11:54:00;;;;;;;3.85;1.40;;;;;;;10.00;100.00;99421.88;6051415;28;20091;-72
2023/12/24 11:56:55;;;;;;;1.73;1.30;;;;;;;10.03;100.00;99426.81;6068599;28;20051;-72
2023/12/24 11:59:50;;;;;;;2.20;1.40;;;;;;;10.07;100.00;99422.81;6046317;28;20034;-72
2023/12/24 12:02:52;;;;;;;2.13;1.10;;;;;;;10.08;100.00;99421.84;6069428;28;20055;-72
2023/12/24 12:05:48;;;;;;;2.10;1.20;;;;;;;10.06;100.00;99421.16;6063974;28;20034;-72
2023/12/24 12:08:43;;;;;;;5.53;1.40;;;;;;;10.05;100.00;99419.53;6066529;28;20519;-72
2023/12/24 12:11:41;;;;;;;3.45;1.60;;;;;;;10.05;100.00;99430.13;6065668;28;20148;-71
2023/12/24 12:14:37;;;;;;;2.83;1.65;;;;;;;10.02;100.00;99414.56;6060950;28;20038;-72
2023/12/24 12:17:32;;;;;;;2.72;1.83;;;;;;;9.96;100.00;99404.69;6058154;28;20026;-73
2023/12/24 12:20:27;;;;;;;2.90;1.80;;;;;;;9.89;100.00;99409.03;6061359;28;20044;-71
2023/12/24 12:23:23;;;;;;;2.67;1.53;;;;;;;9.89;100.00;99406.38;6061959;28;20108;-72
2023/12/24 12:26:18;;;;;;;2.57;1.47;;;;;;;9.87;100.00;99408.34;6061834;28;20029;-72
2023/12/24 12:29:14;;;;;;;3.50;2.00;;;;;;;9.84;100.00;99398.09;6056782;28;20038;-72
2023/12/24 12:32:09;;;;;;;5.15;1.77;;;;;;;9.80;100.00;99386.22;6059825;28;20045;-71
2023/12/24 12:35:05;;;;;;;3.37;1.97;;;;;;;9.82;100.00;99393.00;6064292;28;20038;-72
2023/12/24 12:38:00;;;;;;;3.35;1.75;;;;;;;9.83;100.00;99385.88;6067815;28;20025;-72
2023/12/24 12:40:55;;;;;;;3.37;1.70;;;;;;;9.78;100.00;99385.59;6060641;28;20437;-74
2023/12/24 12:43:51;;;;;;;3.30;1.80;;;;;;;9.82;100.00;99398.28;6065976;28;20106;-72
2023/12/24 12:46:47;;;;;;;3.67;1.90;;;;;;;9.78;100.00;99396.19;6072396;28;20271;-73
2023/12/24 12:49:43;;;;;;;7.25;1.98;;;;;;;9.71;100.00;99381.97;6064286;28;20535;-72
2023/12/24 12:52:38;;;;;;;3.72;2.10;;;;;;;9.72;100.00;99381.81;6070027;28;20035;-73
2023/12/24 12:55:34;;;;;;;6.63;2.58;;;;;;;9.78;100.00;99385.59;6067274;28;20041;-73
2023/12/24 12:58:30;;;;;;;7.90;3.70;;;;;;;9.78;100.00;99375.00;6062019;28;20128;-73
2023/12/24 13:01:25;;;;;;;4.68;2.45;;;;;;;9.73;100.00;99364.09;6064735;28;20500;-74
2023/12/24 13:04:37;;;;;;;4.63;2.10;;;;;;;9.74;100.00;99363.09;6069983;28;20124;-74
2023/12/24 13:07:33;;;;;;;5.28;2.53;;;;;;;9.80;100.00;99368.53;6064616;28;20026;-74
2023/12/24 13:10:33;;;;;;;4.18;2.58;;;;;;;9.70;100.00;99330.88;6062174;28;20036;-73
2023/12/24 13:13:32;;;;;;;3.90;1.98;;;;;;;9.86;100.00;99372.31;6063304;28;20033;-74
2023/12/24 13:16:28;;;;;;;3.45;1.90;;;;;;;9.82;100.00;99360.41;6061956;28;20109;-73
2023/12/24 13:19:24;;;;;;;4.90;1.80;;;;;;;9.86;100.00;99367.00;6064605;28;20485;-74
2023/12/24 13:22:23;;;;;;;3.13;1.88;;;;;;;9.84;100.00;99338.03;6060377;28;20489;-73
2023/12/24 13:25:18;;;;;;;6.57;2.42;;;;;;;9.90;100.00;99340.00;6049087;28;20061;-72
2023/12/24 13:28:14;;;;;;;4.20;1.80;;;;;;;9.87;100.00;99342.16;6073627;28;20048;-74
2023/12/24 13:31:09;;;;;;;4.55;2.03;;;;;;;9.86;100.00;99324.66;6070148;28;20287;-73
2023/12/24 13:34:05;;;;;;;5.37;1.90;;;;;;;9.91;100.00;99311.69;6059694;28;20041;-73
2023/12/24 13:37:00;;;;;;;4.25;2.47;;;;;;;9.95;100.00;99328.88;6066918;28;20033;-73
2023/12/24 13:39:56;;;;;;;4.40;2.00;;;;;;;10.04;100.00;99331.31;6063584;28;20030;-74
2023/12/24 13:42:51;;;;;;;3.50;1.88;;;;;;;10.01;100.00;99306.97;6061877;28;20030;-72
2023/12/24 13:45:46;;;;;;;5.00;2.40;;;;;;;10.07;100.00;99323.00;6049958;28;20493;-72
2023/12/24 13:48:42;;;;;;;6.13;2.28;;;;;;;10.13;100.00;99324.16;6058605;28;20069;-73
2023/12/24 13:51:37;;;;;;;3.63;2.13;;;;;;;10.13;100.00;99337.41;6054302;28;20100;-73
2023/12/24 13:54:32;;;;;;;4.63;2.50;;;;;;;10.13;100.00;99322.34;6038471;28;20053;-73